sensor_id;sensor_type;location;lat;lon;timestamp;P1;durP1;ratioP1;P2;durP2;ratioP2
11877;SDS011;5998;42.676;23.268;2022-11-20T00:02:03;2.00;;;1.00;;
11877;SDS011;5998;42.676;23.268;2022-11-20T00:04:30;4.47;;;1.10;;
11877;SDS011;5998;42.676;23.268;2022-11-20T00:06:56;1.70;;;1.10;;
11877;SDS011;5998;42.676;23.268;2022-11-20T00:09:23;2.33;;;1.07;;
11877;SDS011;5998;42.676;23.268;2022-11-20T00:11:49;1.13;;;1.00;;
11877;SDS011;5998;42.676;23.268;2022-11-20T00:14:16;2.37;;;1.30;;
11877;SDS011;5998;42.676;23.268;2022-11-20T00:16:44;2.90;;;1.13;;
11877;SDS011;5998;42.676;23.268;2022-11-20T00:19:10;3.10;;;1.40;;
11877;SDS011;5998;42.676;23.268;2022-11-20T00:21:37;3.33;;;1.20;;
11877;SDS011;5998;42.676;23.268;2022-11-20T00:24:03;1.37;;;1.10;;
11877;SDS011;5998;42.676;23.268;2022-11-20T00:26:31;1.30;;;1.07;;
11877;SDS011;5998;42.676;23.268;2022-11-20T00:28:58;5.93;;;1.20;;
11877;SDS011;5998;42.676;23.268;2022-11-20T00:31:24;2.33;;;1.33;;
11877;SDS011;5998;42.676;23.268;2022-11-20T00:33:52;3.47;;;1.10;;
11877;SDS011;5998;42.676;23.268;2022-11-20T00:36:19;4.40;;;1.30;;
11877;SDS011;5998;42.676;23.268;2022-11-20T00:38:47;1.63;;;1.10;;
11877;SDS011;5998;42.676;23.268;2022-11-20T00:41:16;1.33;;;1.23;;
11877;SDS011;5998;42.676;23.268;2022-11-20T00:43:43;2.47;;;1.10;;
11877;SDS011;5998;42.676;23.268;2022-11-20T00:46:10;3.83;;;1.17;;
11877;SDS011;5998;42.676;23.268;2022-11-20T00:48:38;3.73;;;1.30;;
11877;SDS011;5998;42.676;23.268;2022-11-20T00:51:06;3.20;;;1.27;;
11877;SDS011;5998;42.676;23.268;2022-11-20T00:53:33;3.23;;;1.20;;
11877;SDS011;5998;42.676;23.268;2022-11-20T00:56:00;4.63;;;1.40;;
11877;SDS011;5998;42.676;23.268;2022-11-20T00:58:28;2.97;;;1.23;;
11877;SDS011;5998;42.676;23.268;2022-11-20T01:00:59;2.03;;;1.30;;
11877;SDS011;5998;42.676;23.268;2022-11-20T01:03:26;2.67;;;1.20;;
11877;SDS011;5998;42.676;23.268;2022-11-20T01:05:52;2.53;;;1.30;;
11877;SDS011;5998;42.676;23.268;2022-11-20T01:08:20;2.33;;;1.53;;
11877;SDS011;5998;42.676;23.268;2022-11-20T01:10:46;2.23;;;1.17;;
11877;SDS011;5998;42.676;23.268;2022-11-20T01:13:13;1.63;;;1.10;;
11877;SDS011;5998;42.676;23.268;2022-11-20T01:16:01;1.40;;;1.27;;
11877;SDS011;5998;42.676;23.268;2022-11-20T01:18:27;2.20;;;1.43;;
11877;SDS011;5998;42.676;23.268;2022-11-20T01:20:54;2.63;;;1.30;;
11877;SDS011;5998;42.676;23.268;2022-11-20T01:23:22;2.57;;;1.10;;
11877;SDS011;5998;42.676;23.268;2022-11-20T01:25:48;1.30;;;1.20;;
11877;SDS011;5998;42.676;23.268;2022-11-20T01:28:14;1.70;;;1.07;;
11877;SDS011;5998;42.676;23.268;2022-11-20T01:30:41;2.87;;;1.30;;
11877;SDS011;5998;42.676;23.268;2022-11-20T01:33:07;5.20;;;1.30;;
11877;SDS011;5998;42.676;23.268;2022-11-20T01:35:34;2.20;;;1.20;;
11877;SDS011;5998;42.676;23.268;2022-11-20T01:38:00;2.20;;;1.20;;
11877;SDS011;5998;42.676;23.268;2022-11-20T01:40:28;2.03;;;1.30;;
11877;SDS011;5998;42.676;23.268;2022-11-20T01:46:02;2.57;;;1.30;;
11877;SDS011;5998;42.676;23.268;2022-11-20T01:48:31;2.30;;;1.27;;
11877;SDS011;5998;42.676;23.268;2022-11-20T01:50:58;3.90;;;1.10;;
11877;SDS011;5998;42.676;23.268;2022-11-20T01:53:27;1.20;;;1.10;;
11877;SDS011;5998;42.676;23.268;2022-11-20T01:55:56;3.50;;;1.40;;
11877;SDS011;5998;42.676;23.268;2022-11-20T01:58:25;4.57;;;1.30;;
11877;SDS011;5998;42.676;23.268;2022-11-20T02:00:52;3.33;;;1.20;;
11877;SDS011;5998;42.676;23.268;2022-11-20T02:03:19;2.13;;;1.20;;
11877;SDS011;5998;42.676;23.268;2022-11-20T02:05:47;2.67;;;1.50;;
11877;SDS011;5998;42.676;23.268;2022-11-20T02:08:15;1.57;;;1.27;;
11877;SDS011;5998;42.676;23.268;2022-11-20T02:10:43;2.17;;;1.03;;
11877;SDS011;5998;42.676;23.268;2022-11-20T02:13:11;2.10;;;1.00;;
11877;SDS011;5998;42.676;23.268;2022-11-20T02:15:55;3.07;;;1.13;;
11877;SDS011;5998;42.676;23.268;2022-11-20T02:18:21;1.00;;;0.90;;
11877;SDS011;5998;42.676;23.268;2022-11-20T02:20:50;2.43;;;1.27;;
11877;SDS011;5998;42.676;23.268;2022-11-20T02:23:21;2.10;;;1.30;;
11877;SDS011;5998;42.676;23.268;2022-11-20T02:25:51;3.57;;;1.20;;
11877;SDS011;5998;42.676;23.268;2022-11-20T02:28:18;1.67;;;1.30;;
11877;SDS011;5998;42.676;23.268;2022-11-20T02:30:45;1.30;;;1.00;;
11877;SDS011;5998;42.676;23.268;2022-11-20T02:33:12;2.40;;;1.10;;
11877;SDS011;5998;42.676;23.268;2022-11-20T02:35:40;1.17;;;1.07;;
11877;SDS011;5998;42.676;23.268;2022-11-20T02:38:07;3.13;;;1.27;;
11877;SDS011;5998;42.676;23.268;2022-11-20T02:40:33;1.33;;;1.20;;
11877;SDS011;5998;42.676;23.268;2022-11-20T02:43:01;2.00;;;1.00;;
11877;SDS011;5998;42.676;23.268;2022-11-20T02:45:27;1.00;;;1.00;;
11877;SDS011;5998;42.676;23.268;2022-11-20T02:47:54;2.77;;;1.20;;
11877;SDS011;5998;42.676;23.268;2022-11-20T02:50:20;2.73;;;1.23;;
11877;SDS011;5998;42.676;23.268;2022-11-20T02:52:47;3.53;;;1.23;;
11877;SDS011;5998;42.676;23.268;2022-11-20T02:55:13;2.10;;;1.20;;
11877;SDS011;5998;42.676;23.268;2022-11-20T02:57:39;2.07;;;1.20;;
11877;SDS011;5998;42.676;23.268;2022-11-20T03:00:08;1.93;;;1.20;;
11877;SDS011;5998;42.676;23.268;2022-11-20T03:02:35;4.20;;;1.67;;
11877;SDS011;5998;42.676;23.268;2022-11-20T03:05:01;3.30;;;1.40;;
11877;SDS011;5998;42.676;23.268;2022-11-20T03:07:28;2.97;;;1.40;;
11877;SDS011;5998;42.676;23.268;2022-11-20T03:09:54;3.97;;;1.50;;
11877;SDS011;5998;42.676;23.268;2022-11-20T03:12:20;3.90;;;1.50;;
11877;SDS011;5998;42.676;23.268;2022-11-20T03:14:47;2.90;;;1.53;;
11877;SDS011;5998;42.676;23.268;2022-11-20T03:17:15;1.43;;;1.30;;
11877;SDS011;5998;42.676;23.268;2022-11-20T03:19:41;5.47;;;1.70;;
11877;SDS011;5998;42.676;23.268;2022-11-20T03:22:08;2.53;;;1.37;;
11877;SDS011;5998;42.676;23.268;2022-11-20T03:24:34;4.73;;;1.30;;
11877;SDS011;5998;42.676;23.268;2022-11-20T03:27:01;4.33;;;1.20;;
11877;SDS011;5998;42.676;23.268;2022-11-20T03:29:27;2.73;;;1.27;;
11877;SDS011;5998;42.676;23.268;2022-11-20T03:31:54;2.50;;;1.30;;
11877;SDS011;5998;42.676;23.268;2022-11-20T03:34:22;2.60;;;1.20;;
11877;SDS011;5998;42.676;23.268;2022-11-20T03:36:48;1.93;;;1.03;;
11877;SDS011;5998;42.676;23.268;2022-11-20T03:39:14;2.07;;;1.30;;
11877;SDS011;5998;42.676;23.268;2022-11-20T03:41:41;2.07;;;1.17;;
11877;SDS011;5998;42.676;23.268;2022-11-20T03:44:09;2.53;;;1.30;;
11877;SDS011;5998;42.676;23.268;2022-11-20T03:46:35;3.57;;;1.30;;
11877;SDS011;5998;42.676;23.268;2022-11-20T03:49:02;1.00;;;1.00;;
11877;SDS011;5998;42.676;23.268;2022-11-20T03:51:31;3.60;;;1.27;;
11877;SDS011;5998;42.676;23.268;2022-11-20T03:53:58;3.40;;;1.20;;
11877;SDS011;5998;42.676;23.268;2022-11-20T03:56:25;3.13;;;1.20;;
11877;SDS011;5998;42.676;23.268;2022-11-20T03:58:52;1.37;;;1.10;;
11877;SDS011;5998;42.676;23.268;2022-11-20T04:01:19;1.80;;;1.00;;
11877;SDS011;5998;42.676;23.268;2022-11-20T04:03:46;1.57;;;1.10;;
11877;SDS011;5998;42.676;23.268;2022-11-20T04:06:13;2.03;;;1.30;;
11877;SDS011;5998;42.676;23.268;2022-11-20T04:08:42;2.27;;;1.30;;
11877;SDS011;5998;42.676;23.268;2022-11-20T04:11:12;2.80;;;1.40;;
11877;SDS011;5998;42.676;23.268;2022-11-20T04:13:39;4.37;;;1.20;;
11877;SDS011;5998;42.676;23.268;2022-11-20T04:16:06;1.47;;;1.30;;
11877;SDS011;5998;42.676;23.268;2022-11-20T04:18:32;0.97;;;0.93;;
11877;SDS011;5998;42.676;23.268;2022-11-20T04:20:59;3.40;;;1.43;;
11877;SDS011;5998;42.676;23.268;2022-11-20T04:23:26;2.77;;;1.10;;
11877;SDS011;5998;42.676;23.268;2022-11-20T04:25:54;2.03;;;1.17;;
11877;SDS011;5998;42.676;23.268;2022-11-20T04:28:20;1.23;;;1.10;;
11877;SDS011;5998;42.676;23.268;2022-11-20T04:30:47;2.87;;;1.10;;
11877;SDS011;5998;42.676;23.268;2022-11-20T04:33:13;1.80;;;1.30;;
11877;SDS011;5998;42.676;23.268;2022-11-20T04:35:40;2.70;;;1.13;;
11877;SDS011;5998;42.676;23.268;2022-11-20T04:38:06;2.50;;;1.10;;
11877;SDS011;5998;42.676;23.268;2022-11-20T04:40:33;3.17;;;1.00;;
11877;SDS011;5998;42.676;23.268;2022-11-20T04:43:01;2.67;;;1.27;;
11877;SDS011;5998;42.676;23.268;2022-11-20T04:45:27;2.43;;;0.93;;
11877;SDS011;5998;42.676;23.268;2022-11-20T04:47:54;2.37;;;1.30;;
11877;SDS011;5998;42.676;23.268;2022-11-20T04:50:20;2.10;;;1.10;;
11877;SDS011;5998;42.676;23.268;2022-11-20T04:52:47;1.33;;;1.10;;
11877;SDS011;5998;42.676;23.268;2022-11-20T04:55:13;3.10;;;1.10;;
11877;SDS011;5998;42.676;23.268;2022-11-20T04:57:39;2.97;;;1.27;;
11877;SDS011;5998;42.676;23.268;2022-11-20T05:00:09;2.73;;;1.10;;
11877;SDS011;5998;42.676;23.268;2022-11-20T05:02:35;2.10;;;1.13;;
11877;SDS011;5998;42.676;23.268;2022-11-20T05:05:02;1.33;;;1.23;;
11877;SDS011;5998;42.676;23.268;2022-11-20T05:07:28;1.60;;;0.97;;
11877;SDS011;5998;42.676;23.268;2022-11-20T05:09:54;2.23;;;1.00;;
11877;SDS011;5998;42.676;23.268;2022-11-20T05:12:21;2.33;;;0.90;;
11877;SDS011;5998;42.676;23.268;2022-11-20T05:14:47;2.27;;;0.80;;
11877;SDS011;5998;42.676;23.268;2022-11-20T05:17:15;2.00;;;1.03;;
11877;SDS011;5998;42.676;23.268;2022-11-20T05:19:42;1.37;;;0.90;;
11877;SDS011;5998;42.676;23.268;2022-11-20T05:22:08;1.53;;;1.00;;
11877;SDS011;5998;42.676;23.268;2022-11-20T05:24:35;2.90;;;1.00;;
11877;SDS011;5998;42.676;23.268;2022-11-20T05:27:01;2.90;;;0.90;;
11877;SDS011;5998;42.676;23.268;2022-11-20T05:29:28;4.10;;;1.30;;
11877;SDS011;5998;42.676;23.268;2022-11-20T05:31:54;2.07;;;1.00;;
11877;SDS011;5998;42.676;23.268;2022-11-20T05:34:22;2.67;;;1.10;;
11877;SDS011;5998;42.676;23.268;2022-11-20T05:36:49;1.13;;;1.00;;
11877;SDS011;5998;42.676;23.268;2022-11-20T05:39:15;2.70;;;1.03;;
11877;SDS011;5998;42.676;23.268;2022-11-20T05:41:42;1.37;;;0.97;;
11877;SDS011;5998;42.676;23.268;2022-11-20T05:44:10;3.83;;;1.40;;
11877;SDS011;5998;42.676;23.268;2022-11-20T05:46:36;2.10;;;1.20;;
11877;SDS011;5998;42.676;23.268;2022-11-20T05:49:03;2.00;;;0.93;;
11877;SDS011;5998;42.676;23.268;2022-11-20T05:51:30;1.93;;;1.40;;
11877;SDS011;5998;42.676;23.268;2022-11-20T05:53:57;2.03;;;1.03;;
11877;SDS011;5998;42.676;23.268;2022-11-20T05:56:24;3.47;;;1.30;;
11877;SDS011;5998;42.676;23.268;2022-11-20T05:58:50;4.40;;;1.07;;
11877;SDS011;5998;42.676;23.268;2022-11-20T06:01:17;2.80;;;1.10;;
11877;SDS011;5998;42.676;23.268;2022-11-20T06:03:44;3.33;;;1.10;;
11877;SDS011;5998;42.676;23.268;2022-11-20T06:06:12;1.47;;;0.93;;
11877;SDS011;5998;42.676;23.268;2022-11-20T06:08:40;1.73;;;1.07;;
11877;SDS011;5998;42.676;23.268;2022-11-20T06:11:08;4.00;;;1.10;;
11877;SDS011;5998;42.676;23.268;2022-11-20T06:13:34;1.50;;;0.90;;
11877;SDS011;5998;42.676;23.268;2022-11-20T06:16:01;1.67;;;0.87;;
11877;SDS011;5998;42.676;23.268;2022-11-20T06:18:28;2.87;;;1.13;;
11877;SDS011;5998;42.676;23.268;2022-11-20T06:21:01;5.57;;;1.10;;
11877;SDS011;5998;42.676;23.268;2022-11-20T06:23:29;2.80;;;1.40;;
11877;SDS011;5998;42.676;23.268;2022-11-20T06:25:56;4.37;;;1.17;;
11877;SDS011;5998;42.676;23.268;2022-11-20T06:28:23;2.60;;;1.10;;
11877;SDS011;5998;42.676;23.268;2022-11-20T06:30:50;2.67;;;1.10;;
11877;SDS011;5998;42.676;23.268;2022-11-20T06:33:16;4.17;;;1.30;;
11877;SDS011;5998;42.676;23.268;2022-11-20T06:35:42;2.83;;;1.00;;
11877;SDS011;5998;42.676;23.268;2022-11-20T06:38:09;5.07;;;1.60;;
11877;SDS011;5998;42.676;23.268;2022-11-20T06:40:35;3.07;;;1.30;;
11877;SDS011;5998;42.676;23.268;2022-11-20T06:43:03;1.77;;;1.20;;
11877;SDS011;5998;42.676;23.268;2022-11-20T06:45:30;2.07;;;1.10;;
11877;SDS011;5998;42.676;23.268;2022-11-20T06:47:56;3.40;;;1.20;;
11877;SDS011;5998;42.676;23.268;2022-11-20T06:50:23;4.87;;;1.50;;
11877;SDS011;5998;42.676;23.268;2022-11-20T06:52:49;2.90;;;1.20;;
11877;SDS011;5998;42.676;23.268;2022-11-20T06:55:16;2.13;;;1.37;;
11877;SDS011;5998;42.676;23.268;2022-11-20T06:57:43;2.23;;;1.27;;
11877;SDS011;5998;42.676;23.268;2022-11-20T07:00:11;2.70;;;1.00;;
11877;SDS011;5998;42.676;23.268;2022-11-20T07:02:38;1.47;;;0.80;;
11877;SDS011;5998;42.676;23.268;2022-11-20T07:05:05;1.10;;;1.00;;
11877;SDS011;5998;42.676;23.268;2022-11-20T07:07:32;2.37;;;1.20;;
11877;SDS011;5998;42.676;23.268;2022-11-20T07:09:58;6.33;;;1.20;;
11877;SDS011;5998;42.676;23.268;2022-11-20T07:12:25;7.67;;;3.73;;
11877;SDS011;5998;42.676;23.268;2022-11-20T07:14:51;2.13;;;1.27;;
11877;SDS011;5998;42.676;23.268;2022-11-20T07:17:19;7.27;;;3.50;;
11877;SDS011;5998;42.676;23.268;2022-11-20T07:19:46;23.23;;;8.27;;
11877;SDS011;5998;42.676;23.268;2022-11-20T07:22:12;2.87;;;1.40;;
11877;SDS011;5998;42.676;23.268;2022-11-20T07:24:39;5.30;;;2.50;;
11877;SDS011;5998;42.676;23.268;2022-11-20T07:27:05;6.03;;;3.30;;
11877;SDS011;5998;42.676;23.268;2022-11-20T07:29:32;4.50;;;2.10;;
11877;SDS011;5998;42.676;23.268;2022-11-20T07:31:58;16.27;;;8.03;;
11877;SDS011;5998;42.676;23.268;2022-11-20T07:34:26;7.60;;;2.80;;
11877;SDS011;5998;42.676;23.268;2022-11-20T07:36:53;2.47;;;1.40;;
11877;SDS011;5998;42.676;23.268;2022-11-20T07:39:19;5.10;;;1.77;;
11877;SDS011;5998;42.676;23.268;2022-11-20T07:41:45;5.30;;;2.33;;
11877;SDS011;5998;42.676;23.268;2022-11-20T07:44:12;4.27;;;1.67;;
11877;SDS011;5998;42.676;23.268;2022-11-20T07:46:38;3.93;;;2.10;;
11877;SDS011;5998;42.676;23.268;2022-11-20T07:49:05;3.70;;;1.10;;
11877;SDS011;5998;42.676;23.268;2022-11-20T07:51:32;4.17;;;1.40;;
11877;SDS011;5998;42.676;23.268;2022-11-20T07:53:59;10.27;;;6.53;;
11877;SDS011;5998;42.676;23.268;2022-11-20T07:56:26;4.43;;;2.17;;
11877;SDS011;5998;42.676;23.268;2022-11-20T07:58:52;7.43;;;3.83;;
11877;SDS011;5998;42.676;23.268;2022-11-20T08:01:18;5.30;;;1.90;;
11877;SDS011;5998;42.676;23.268;2022-11-20T08:03:45;5.27;;;2.33;;
11877;SDS011;5998;42.676;23.268;2022-11-20T08:06:11;4.87;;;1.57;;
11877;SDS011;5998;42.676;23.268;2022-11-20T08:08:41;4.73;;;1.73;;
11877;SDS011;5998;42.676;23.268;2022-11-20T08:11:07;3.37;;;1.60;;
11877;SDS011;5998;42.676;23.268;2022-11-20T08:13:51;4.33;;;1.70;;
11877;SDS011;5998;42.676;23.268;2022-11-20T08:16:35;4.10;;;1.80;;
11877;SDS011;5998;42.676;23.268;2022-11-20T08:19:02;7.20;;;2.60;;
11877;SDS011;5998;42.676;23.268;2022-11-20T08:21:29;2.90;;;1.23;;
11877;SDS011;5998;42.676;23.268;2022-11-20T08:23:57;3.43;;;1.70;;
11877;SDS011;5998;42.676;23.268;2022-11-20T08:26:24;7.43;;;2.60;;
11877;SDS011;5998;42.676;23.268;2022-11-20T08:28:52;5.37;;;1.83;;
11877;SDS011;5998;42.676;23.268;2022-11-20T08:31:19;3.77;;;1.10;;
11877;SDS011;5998;42.676;23.268;2022-11-20T08:33:46;3.77;;;1.57;;
11877;SDS011;5998;42.676;23.268;2022-11-20T08:36:12;4.47;;;2.70;;
11877;SDS011;5998;42.676;23.268;2022-11-20T08:38:38;5.40;;;1.90;;
11877;SDS011;5998;42.676;23.268;2022-11-20T08:41:06;4.60;;;2.10;;
11877;SDS011;5998;42.676;23.268;2022-11-20T08:43:52;5.60;;;2.00;;
11877;SDS011;5998;42.676;23.268;2022-11-20T08:46:19;3.07;;;1.70;;
11877;SDS011;5998;42.676;23.268;2022-11-20T08:48:46;5.77;;;2.07;;
11877;SDS011;5998;42.676;23.268;2022-11-20T08:51:12;7.07;;;1.90;;
11877;SDS011;5998;42.676;23.268;2022-11-20T08:53:39;4.67;;;2.10;;
11877;SDS011;5998;42.676;23.268;2022-11-20T08:56:08;7.73;;;2.47;;
11877;SDS011;5998;42.676;23.268;2022-11-20T08:58:34;6.63;;;3.10;;
11877;SDS011;5998;42.676;23.268;2022-11-20T09:01:01;4.27;;;2.97;;
11877;SDS011;5998;42.676;23.268;2022-11-20T09:03:27;8.47;;;3.67;;
11877;SDS011;5998;42.676;23.268;2022-11-20T09:05:56;7.47;;;2.60;;
11877;SDS011;5998;42.676;23.268;2022-11-20T09:08:23;4.60;;;2.73;;
11877;SDS011;5998;42.676;23.268;2022-11-20T09:10:50;5.43;;;2.80;;
11877;SDS011;5998;42.676;23.268;2022-11-20T09:13:18;9.47;;;2.90;;
11877;SDS011;5998;42.676;23.268;2022-11-20T09:15:45;5.57;;;2.53;;
11877;SDS011;5998;42.676;23.268;2022-11-20T09:18:11;8.47;;;2.43;;
11877;SDS011;5998;42.676;23.268;2022-11-20T09:20:38;4.43;;;2.00;;
11877;SDS011;5998;42.676;23.268;2022-11-20T09:23:05;3.67;;;1.83;;
11877;SDS011;5998;42.676;23.268;2022-11-20T09:25:31;4.93;;;1.90;;
11877;SDS011;5998;42.676;23.268;2022-11-20T09:27:58;1.77;;;1.57;;
11877;SDS011;5998;42.676;23.268;2022-11-20T09:30:26;3.23;;;1.47;;
11877;SDS011;5998;42.676;23.268;2022-11-20T09:32:53;3.33;;;1.70;;
11877;SDS011;5998;42.676;23.268;2022-11-20T09:35:19;4.07;;;1.73;;
11877;SDS011;5998;42.676;23.268;2022-11-20T09:37:46;3.27;;;2.03;;
11877;SDS011;5998;42.676;23.268;2022-11-20T09:40:17;2.90;;;1.70;;
11877;SDS011;5998;42.676;23.268;2022-11-20T09:42:45;4.33;;;1.70;;
11877;SDS011;5998;42.676;23.268;2022-11-20T09:45:19;5.53;;;1.90;;
11877;SDS011;5998;42.676;23.268;2022-11-20T09:48:01;5.60;;;2.07;;
11877;SDS011;5998;42.676;23.268;2022-11-20T09:50:31;5.20;;;2.33;;
11877;SDS011;5998;42.676;23.268;2022-11-20T09:53:02;3.83;;;2.20;;
11877;SDS011;5998;42.676;23.268;2022-11-20T09:55:31;4.30;;;2.40;;
11877;SDS011;5998;42.676;23.268;2022-11-20T09:57:57;5.23;;;2.80;;
11877;SDS011;5998;42.676;23.268;2022-11-20T10:00:25;6.93;;;2.50;;
11877;SDS011;5998;42.676;23.268;2022-11-20T10:02:52;12.60;;;2.83;;
11877;SDS011;5998;42.676;23.268;2022-11-20T10:05:25;8.07;;;2.53;;
11877;SDS011;5998;42.676;23.268;2022-11-20T10:07:53;7.83;;;2.40;;
11877;SDS011;5998;42.676;23.268;2022-11-20T10:10:23;9.10;;;3.00;;
11877;SDS011;5998;42.676;23.268;2022-11-20T10:12:56;4.17;;;2.30;;
11877;SDS011;5998;42.676;23.268;2022-11-20T10:15:30;5.87;;;3.00;;
11877;SDS011;5998;42.676;23.268;2022-11-20T10:18:10;5.03;;;2.67;;
11877;SDS011;5998;42.676;23.268;2022-11-20T10:20:43;9.37;;;3.80;;
11877;SDS011;5998;42.676;23.268;2022-11-20T10:25:53;5.13;;;2.50;;
11877;SDS011;5998;42.676;23.268;2022-11-20T10:28:27;6.00;;;2.67;;
11877;SDS011;5998;42.676;23.268;2022-11-20T10:30:56;6.67;;;3.73;;
11877;SDS011;5998;42.676;23.268;2022-11-20T10:33:26;6.33;;;3.00;;
11877;SDS011;5998;42.676;23.268;2022-11-20T10:35:55;5.50;;;3.03;;
11877;SDS011;5998;42.676;23.268;2022-11-20T10:38:25;5.07;;;2.60;;
11877;SDS011;5998;42.676;23.268;2022-11-20T10:40:52;9.80;;;3.20;;
11877;SDS011;5998;42.676;23.268;2022-11-20T10:43:40;6.03;;;3.60;;
11877;SDS011;5998;42.676;23.268;2022-11-20T10:46:08;8.23;;;3.60;;
11877;SDS011;5998;42.676;23.268;2022-11-20T10:48:43;10.47;;;3.40;;
11877;SDS011;5998;42.676;23.268;2022-11-20T10:51:18;7.17;;;3.23;;
11877;SDS011;5998;42.676;23.268;2022-11-20T10:53:53;9.57;;;3.77;;
11877;SDS011;5998;42.676;23.268;2022-11-20T10:56:22;9.90;;;3.43;;
11877;SDS011;5998;42.676;23.268;2022-11-20T10:59:03;10.73;;;2.70;;
11877;SDS011;5998;42.676;23.268;2022-11-20T11:01:30;6.63;;;3.10;;
11877;SDS011;5998;42.676;23.268;2022-11-20T11:03:57;7.50;;;2.50;;
11877;SDS011;5998;42.676;23.268;2022-11-20T11:06:28;5.33;;;2.03;;
11877;SDS011;5998;42.676;23.268;2022-11-20T11:08:56;3.90;;;1.87;;
11877;SDS011;5998;42.676;23.268;2022-11-20T11:11:26;2.40;;;1.53;;
11877;SDS011;5998;42.676;23.268;2022-11-20T11:13:57;3.00;;;1.50;;
11877;SDS011;5998;42.676;23.268;2022-11-20T11:16:30;3.77;;;1.27;;
11877;SDS011;5998;42.676;23.268;2022-11-20T11:19:03;3.50;;;1.40;;
11877;SDS011;5998;42.676;23.268;2022-11-20T11:21:31;2.80;;;1.10;;
11877;SDS011;5998;42.676;23.268;2022-11-20T11:23:58;1.73;;;1.23;;
11877;SDS011;5998;42.676;23.268;2022-11-20T11:26:25;2.33;;;1.27;;
11877;SDS011;5998;42.676;23.268;2022-11-20T11:28:52;2.00;;;1.00;;
11877;SDS011;5998;42.676;23.268;2022-11-20T11:31:21;2.10;;;1.20;;
11877;SDS011;5998;42.676;23.268;2022-11-20T11:33:48;3.13;;;1.40;;
11877;SDS011;5998;42.676;23.268;2022-11-20T11:36:16;0.90;;;0.90;;
11877;SDS011;5998;42.676;23.268;2022-11-20T11:38:44;3.07;;;1.20;;
11877;SDS011;5998;42.676;23.268;2022-11-20T11:41:12;4.40;;;1.23;;
11877;SDS011;5998;42.676;23.268;2022-11-20T11:43:48;2.37;;;1.20;;
11877;SDS011;5998;42.676;23.268;2022-11-20T11:46:33;4.80;;;1.20;;
11877;SDS011;5998;42.676;23.268;2022-11-20T11:49:01;4.10;;;1.40;;
11877;SDS011;5998;42.676;23.268;2022-11-20T11:51:37;2.30;;;1.17;;
11877;SDS011;5998;42.676;23.268;2022-11-20T11:54:10;2.20;;;1.00;;
11877;SDS011;5998;42.676;23.268;2022-11-20T11:56:40;3.73;;;1.27;;
11877;SDS011;5998;42.676;23.268;2022-11-20T11:59:08;4.87;;;1.30;;
11877;SDS011;5998;42.676;23.268;2022-11-20T12:01:37;2.43;;;1.50;;
11877;SDS011;5998;42.676;23.268;2022-11-20T12:04:17;1.93;;;1.30;;
11877;SDS011;5998;42.676;23.268;2022-11-20T12:06:47;3.63;;;1.27;;
11877;SDS011;5998;42.676;23.268;2022-11-20T12:09:17;3.97;;;1.20;;
11877;SDS011;5998;42.676;23.268;2022-11-20T12:11:45;3.27;;;1.10;;
11877;SDS011;5998;42.676;23.268;2022-11-20T12:14:14;1.50;;;1.00;;
11877;SDS011;5998;42.676;23.268;2022-11-20T12:16:41;1.87;;;1.13;;
11877;SDS011;5998;42.676;23.268;2022-11-20T12:19:08;5.00;;;1.47;;
11877;SDS011;5998;42.676;23.268;2022-11-20T12:21:38;2.17;;;1.07;;
11877;SDS011;5998;42.676;23.268;2022-11-20T12:24:12;3.30;;;1.20;;
11877;SDS011;5998;42.676;23.268;2022-11-20T12:26:51;1.67;;;1.27;;
11877;SDS011;5998;42.676;23.268;2022-11-20T12:29:26;5.73;;;1.50;;
11877;SDS011;5998;42.676;23.268;2022-11-20T12:31:57;2.13;;;1.20;;
11877;SDS011;5998;42.676;23.268;2022-11-20T12:34:34;1.77;;;0.93;;
11877;SDS011;5998;42.676;23.268;2022-11-20T12:37:04;3.53;;;1.27;;
11877;SDS011;5998;42.676;23.268;2022-11-20T12:39:35;3.03;;;1.20;;
11877;SDS011;5998;42.676;23.268;2022-11-20T12:42:09;1.37;;;0.93;;
11877;SDS011;5998;42.676;23.268;2022-11-20T12:45:01;4.17;;;1.50;;
11877;SDS011;5998;42.676;23.268;2022-11-20T12:47:50;2.47;;;1.60;;
11877;SDS011;5998;42.676;23.268;2022-11-20T12:50:20;4.70;;;3.20;;
11877;SDS011;5998;42.676;23.268;2022-11-20T12:52:50;4.17;;;2.07;;
11877;SDS011;5998;42.676;23.268;2022-11-20T12:55:25;4.27;;;1.87;;
11877;SDS011;5998;42.676;23.268;2022-11-20T12:57:57;3.60;;;2.20;;
11877;SDS011;5998;42.676;23.268;2022-11-20T13:00:24;4.83;;;1.87;;
11877;SDS011;5998;42.676;23.268;2022-11-20T13:03:05;5.23;;;2.30;;
11877;SDS011;5998;42.676;23.268;2022-11-20T13:05:36;9.27;;;6.47;;
11877;SDS011;5998;42.676;23.268;2022-11-20T13:08:03;7.17;;;4.60;;
11877;SDS011;5998;42.676;23.268;2022-11-20T13:10:35;5.67;;;3.10;;
11877;SDS011;5998;42.676;23.268;2022-11-20T13:13:08;4.73;;;3.20;;
11877;SDS011;5998;42.676;23.268;2022-11-20T13:15:44;3.90;;;2.97;;
11877;SDS011;5998;42.676;23.268;2022-11-20T13:18:13;10.87;;;5.43;;
11877;SDS011;5998;42.676;23.268;2022-11-20T13:20:43;5.77;;;3.97;;
11877;SDS011;5998;42.676;23.268;2022-11-20T13:23:10;11.93;;;7.87;;
11877;SDS011;5998;42.676;23.268;2022-11-20T13:25:37;10.63;;;6.13;;
11877;SDS011;5998;42.676;23.268;2022-11-20T13:30:50;6.87;;;3.87;;
11877;SDS011;5998;42.676;23.268;2022-11-20T13:33:22;5.47;;;4.30;;
11877;SDS011;5998;42.676;23.268;2022-11-20T13:35:54;8.27;;;4.60;;
11877;SDS011;5998;42.676;23.268;2022-11-20T13:38:21;11.33;;;6.07;;
11877;SDS011;5998;42.676;23.268;2022-11-20T13:40:51;7.50;;;5.00;;
11877;SDS011;5998;42.676;23.268;2022-11-20T13:43:19;9.37;;;6.77;;
11877;SDS011;5998;42.676;23.268;2022-11-20T13:46:00;12.63;;;9.13;;
11877;SDS011;5998;42.676;23.268;2022-11-20T13:48:28;13.93;;;9.47;;
11877;SDS011;5998;42.676;23.268;2022-11-20T13:50:57;11.10;;;7.70;;
11877;SDS011;5998;42.676;23.268;2022-11-20T13:53:29;10.53;;;5.40;;
11877;SDS011;5998;42.676;23.268;2022-11-20T13:55:59;10.37;;;5.90;;
11877;SDS011;5998;42.676;23.268;2022-11-20T13:58:29;7.77;;;5.63;;
11877;SDS011;5998;42.676;23.268;2022-11-20T14:01:07;9.03;;;4.87;;
11877;SDS011;5998;42.676;23.268;2022-11-20T14:03:34;6.97;;;4.40;;
11877;SDS011;5998;42.676;23.268;2022-11-20T14:06:01;4.57;;;3.10;;
11877;SDS011;5998;42.676;23.268;2022-11-20T14:08:31;5.70;;;3.93;;
11877;SDS011;5998;42.676;23.268;2022-11-20T14:11:04;5.43;;;3.17;;
11877;SDS011;5998;42.676;23.268;2022-11-20T14:13:30;3.17;;;2.60;;
11877;SDS011;5998;42.676;23.268;2022-11-20T14:15:57;6.97;;;2.50;;
11877;SDS011;5998;42.676;23.268;2022-11-20T14:18:25;5.43;;;2.60;;
11877;SDS011;5998;42.676;23.268;2022-11-20T14:20:52;3.83;;;2.20;;
11877;SDS011;5998;42.676;23.268;2022-11-20T14:23:23;3.23;;;2.30;;
11877;SDS011;5998;42.676;23.268;2022-11-20T14:25:49;2.00;;;1.80;;
11877;SDS011;5998;42.676;23.268;2022-11-20T14:28:18;2.97;;;2.27;;
11877;SDS011;5998;42.676;23.268;2022-11-20T14:30:48;2.17;;;1.70;;
11877;SDS011;5998;42.676;23.268;2022-11-20T14:33:15;3.37;;;1.57;;
11877;SDS011;5998;42.676;23.268;2022-11-20T14:35:44;4.70;;;1.90;;
11877;SDS011;5998;42.676;23.268;2022-11-20T14:38:12;2.30;;;1.90;;
11877;SDS011;5998;42.676;23.268;2022-11-20T14:40:39;3.73;;;2.10;;
11877;SDS011;5998;42.676;23.268;2022-11-20T14:43:15;5.07;;;2.33;;
11877;SDS011;5998;42.676;23.268;2022-11-20T14:45:44;1.87;;;1.50;;
11877;SDS011;5998;42.676;23.268;2022-11-20T14:48:11;2.20;;;1.60;;
11877;SDS011;5998;42.676;23.268;2022-11-20T14:50:38;1.63;;;1.53;;
11877;SDS011;5998;42.676;23.268;2022-11-20T14:53:06;2.63;;;1.60;;
11877;SDS011;5998;42.676;23.268;2022-11-20T14:55:34;2.10;;;1.90;;
11877;SDS011;5998;42.676;23.268;2022-11-20T14:58:01;3.00;;;2.70;;
11877;SDS011;5998;42.676;23.268;2022-11-20T15:00:28;3.23;;;2.33;;
11877;SDS011;5998;42.676;23.268;2022-11-20T15:02:55;2.43;;;2.20;;
11877;SDS011;5998;42.676;23.268;2022-11-20T15:05:22;3.50;;;2.67;;